Check out our new BloomSky Weather System.

Active alerts


No alerts


Thunder radar  blitzortung!


Rain radar more information rain snow radar


Visit our other weather sites:

Template documentation
and downloads

And another site



Weather Underground History page Text

Daily Summary for August 6, 2017 Units:  English    Metric   Both
« Previous Day
Next Day »
Daily Weekly Monthly Yearly Custom
  High: Low: Average:
Temperature: 93.9 °F 77.9 °F 83.5 °F
Dew Point: 81.0 °F 73.4 °F 78.8 °F
Humidity: 94 % 62 % 86 %
Wind Speed: 16.0 mph 0.0 mph 3.3 mph
Wind Gust: 23.0 mph - -
Wind:- - SSE
Pressure: 29.92 in 29.83 in -
Precipitation: 0.12 in    
Historical Graphs
 
 
Tabular Data for August 6, 2017
Time Temperature Dew Point Pressure Wind Wind Speed Wind Gust Humidity Rainfall Rate (Hourly)
00:02 81.3 °F 78.4 °F 29.91 in South 1.0 mph 3.0 mph 91 % 0.00 in
00:07 81.3 °F 78.4 °F 29.90 in SSW 2.0 mph 4.0 mph 91 % 0.00 in
00:12 81.3 °F 78.4 °F 29.91 in SSE 2.0 mph 5.0 mph 91 % 0.00 in
00:17 81.1 °F 78.6 °F 29.90 in Calm   5.0 mph 92 % 0.00 in
00:22 81.1 °F 78.6 °F 29.90 in SE 1.0 mph 5.0 mph 92 % 0.00 in
00:27 81.1 °F 78.6 °F 29.91 in SSW 1.0 mph 3.0 mph 92 % 0.00 in
00:28 81.1 °F 78.6 °F 29.91 in SSE 1.0 mph 3.0 mph 92 % 0.00 in
00:33 81.1 °F 78.6 °F 29.90 in Calm   3.0 mph 92 % 0.00 in
00:38 81.0 °F 78.4 °F 29.90 in ESE 1.0 mph 3.0 mph 92 % 0.00 in
00:43 81.0 °F 78.4 °F 29.90 in East 2.0 mph 3.0 mph 92 % 0.00 in
00:48 81.0 °F 78.8 °F 29.89 in SSE 1.0 mph 4.0 mph 93 % 0.00 in
00:53 81.0 °F 78.8 °F 29.89 in ESE 3.0 mph 4.0 mph 93 % 0.00 in
00:58 81.0 °F 78.8 °F 29.89 in Calm   4.0 mph 93 % 0.00 in
01:03 81.0 °F 78.8 °F 29.89 in Calm   4.0 mph 93 % 0.00 in
01:08 80.8 °F 78.6 °F 29.89 in SE 2.0 mph 4.0 mph 93 % 0.00 in
01:13 80.8 °F 78.6 °F 29.89 in SSE 2.0 mph 4.0 mph 93 % 0.00 in
01:18 80.8 °F 78.6 °F 29.89 in ESE 1.0 mph 4.0 mph 93 % 0.00 in
01:23 80.8 °F 78.6 °F 29.88 in SE 1.0 mph 4.0 mph 93 % 0.00 in
01:28 80.8 °F 78.6 °F 29.88 in SSE 1.0 mph 3.0 mph 93 % 0.00 in
01:33 80.8 °F 78.6 °F 29.88 in SE 3.0 mph 4.0 mph 93 % 0.00 in
01:38 80.8 °F 78.6 °F 29.88 in South 2.0 mph 4.0 mph 93 % 0.00 in
01:43 80.8 °F 78.6 °F 29.88 in SE 2.0 mph 4.0 mph 93 % 0.00 in
01:48 80.6 °F 78.4 °F 29.88 in SE 1.0 mph 4.0 mph 93 % 0.00 in
01:53 80.6 °F 78.4 °F 29.88 in SSE 1.0 mph 4.0 mph 93 % 0.00 in
01:58 80.4 °F 78.3 °F 29.88 in South 2.0 mph 3.0 mph 93 % 0.00 in
02:03 80.4 °F 78.3 °F 29.87 in SSE 4.0 mph 4.0 mph 93 % 0.00 in
02:08 80.4 °F 78.3 °F 29.87 in SE 3.0 mph 5.0 mph 93 % 0.00 in
02:13 80.6 °F 78.4 °F 29.87 in South 1.0 mph 5.0 mph 93 % 0.00 in
02:18 80.6 °F 78.4 °F 29.87 in Calm   5.0 mph 93 % 0.00 in
02:24 80.6 °F 78.4 °F 29.87 in Calm   4.0 mph 93 % 0.00 in
02:29 80.4 °F 78.3 °F 29.87 in Calm   4.0 mph 93 % 0.00 in
02:34 80.4 °F 78.3 °F 29.87 in SSE 2.0 mph 4.0 mph 93 % 0.00 in
02:39 80.4 °F 78.3 °F 29.87 in SSE 1.0 mph 4.0 mph 93 % 0.00 in
02:44 80.2 °F 78.1 °F 29.87 in SE 2.0 mph 4.0 mph 93 % 0.00 in
02:49 80.2 °F 78.1 °F 29.86 in SE 3.0 mph 4.0 mph 93 % 0.00 in
02:54 80.2 °F 78.1 °F 29.86 in SE 2.0 mph 4.0 mph 93 % 0.00 in
02:59 80.2 °F 78.1 °F 29.86 in SSW 2.0 mph 5.0 mph 93 % 0.00 in
03:04 80.2 °F 78.1 °F 29.86 in Calm   5.0 mph 93 % 0.00 in
03:09 80.2 °F 78.1 °F 29.86 in SSE 2.0 mph 5.0 mph 93 % 0.00 in
03:14 80.2 °F 78.1 °F 29.86 in South 3.0 mph 4.0 mph 93 % 0.00 in
03:19 80.2 °F 78.1 °F 29.86 in South 3.0 mph 7.0 mph 93 % 0.00 in
03:24 80.2 °F 78.1 °F 29.86 in SSE 4.0 mph 7.0 mph 93 % 0.00 in
03:29 80.2 °F 78.1 °F 29.86 in SSE 1.0 mph 7.0 mph 93 % 0.00 in
03:34 80.2 °F 78.1 °F 29.86 in SE 1.0 mph 6.0 mph 93 % 0.00 in
03:39 80.2 °F 78.1 °F 29.86 in South 2.0 mph 6.0 mph 93 % 0.00 in
03:44 80.2 °F 78.1 °F 29.86 in SSW 3.0 mph 6.0 mph 93 % 0.00 in
03:49 80.2 °F 78.1 °F 29.86 in South 2.0 mph 6.0 mph 93 % 0.00 in
03:54 80.2 °F 78.1 °F 29.85 in SSE 3.0 mph 6.0 mph 93 % 0.00 in
03:59 80.2 °F 78.1 °F 29.85 in SSE 4.0 mph 6.0 mph 93 % 0.00 in
04:04 80.2 °F 78.1 °F 29.86 in SSW 1.0 mph 7.0 mph 93 % 0.00 in
04:09 80.2 °F 78.1 °F 29.86 in South 5.0 mph 7.0 mph 93 % 0.00 in
04:14 80.2 °F 78.1 °F 29.86 in SSE 1.0 mph 10.0 mph 93 % 0.00 in
04:19 80.2 °F 78.1 °F 29.86 in SSE 1.0 mph 10.0 mph 93 % 0.00 in
04:24 80.2 °F 78.1 °F 29.86 in SSE 5.0 mph 10.0 mph 93 % 0.00 in
04:29 80.2 °F 78.1 °F 29.86 in SE 3.0 mph 8.0 mph 93 % 0.00 in
04:31 80.1 °F 77.9 °F 29.86 in SSE 2.0 mph 8.0 mph 93 % 0.00 in
04:36 80.1 °F 77.9 °F 29.86 in SE 1.0 mph 6.0 mph 93 % 0.00 in
04:41 80.1 °F 77.9 °F 29.86 in South 3.0 mph 5.0 mph 93 % 0.00 in
04:47 80.1 °F 77.9 °F 29.86 in South 2.0 mph 5.0 mph 93 % 0.00 in
04:52 80.1 °F 77.9 °F 29.86 in Calm   5.0 mph 93 % 0.00 in
04:57 80.1 °F 77.9 °F 29.86 in SSW 1.0 mph 5.0 mph 93 % 0.00 in
05:02 80.1 °F 77.9 °F 29.86 in SE 2.0 mph 5.0 mph 93 % 0.00 in
05:07 80.1 °F 77.9 °F 29.87 in South 4.0 mph 5.0 mph 93 % 0.00 in
05:12 80.1 °F 77.9 °F 29.87 in Calm   5.0 mph 93 % 0.00 in
05:17 79.9 °F 77.7 °F 29.87 in Calm   5.0 mph 93 % 0.00 in
05:22 79.9 °F 77.7 °F 29.87 in ESE 2.0 mph 5.0 mph 93 % 0.00 in
05:27 79.9 °F 77.7 °F 29.87 in SE 3.0 mph 4.0 mph 93 % 0.00 in
05:32 79.9 °F 77.7 °F 29.87 in SSE 2.0 mph 5.0 mph 93 % 0.00 in
05:37 79.7 °F 77.5 °F 29.87 in SSE 1.0 mph 5.0 mph 93 % 0.00 in
05:42 79.7 °F 77.5 °F 29.87 in South 1.0 mph 5.0 mph 93 % 0.00 in
05:47 79.9 °F 77.7 °F 29.87 in SE 1.0 mph 4.0 mph 93 % 0.00 in
05:52 79.9 °F 77.7 °F 29.87 in SE 1.0 mph 4.0 mph 93 % 0.00 in
05:57 79.9 °F 77.7 °F 29.87 in SSW 2.0 mph 5.0 mph 93 % 0.00 in
06:02 79.9 °F 77.7 °F 29.88 in South 2.0 mph 5.0 mph 93 % 0.00 in
06:07 79.7 °F 77.5 °F 29.87 in SSE 1.0 mph 5.0 mph 93 % 0.00 in
06:12 79.7 °F 77.5 °F 29.88 in South 1.0 mph 5.0 mph 93 % 0.00 in
06:17 79.7 °F 77.5 °F 29.88 in SSE 1.0 mph 5.0 mph 93 % 0.00 in
06:22 79.5 °F 77.4 °F 29.88 in SSE 2.0 mph 5.0 mph 93 % 0.00 in
06:27 79.5 °F 77.7 °F 29.88 in SE 1.0 mph 5.0 mph 94 % 0.00 in
06:32 79.5 °F 77.7 °F 29.88 in South 1.0 mph 4.0 mph 94 % 0.00 in
06:37 79.5 °F 77.7 °F 29.88 in Calm   4.0 mph 94 % 0.00 in
06:42 79.5 °F 77.7 °F 29.88 in SE 2.0 mph 3.0 mph 94 % 0.00 in
06:47 79.3 °F 77.5 °F 29.88 in SSE 1.0 mph 3.0 mph 94 % 0.00 in
06:52 79.3 °F 77.5 °F 29.88 in ESE 2.0 mph 3.0 mph 94 % 0.00 in
06:57 79.3 °F 77.5 °F 29.88 in SSE 1.0 mph 3.0 mph 94 % 0.00 in
07:02 79.3 °F 77.5 °F 29.88 in SE 1.0 mph 3.0 mph 94 % 0.00 in
07:07 79.3 °F 77.5 °F 29.88 in SSW 2.0 mph 3.0 mph 94 % 0.00 in
07:12 79.3 °F 77.5 °F 29.88 in SSE 1.0 mph 3.0 mph 94 % 0.00 in
07:17 79.5 °F 77.7 °F 29.88 in Calm   3.0 mph 94 % 0.00 in
07:22 79.5 °F 77.7 °F 29.88 in SSE 2.0 mph 4.0 mph 94 % 0.00 in
07:27 79.7 °F 77.9 °F 29.89 in Calm   4.0 mph 94 % 0.00 in
07:32 79.9 °F 78.1 °F 29.88 in SE 1.0 mph 4.0 mph 94 % 0.00 in
07:37 80.2 °F 78.4 °F 29.89 in Calm   3.0 mph 94 % 0.00 in
07:42 80.4 °F 78.3 °F 29.89 in SSE 4.0 mph 4.0 mph 93 % 0.00 in
07:47 80.8 °F 78.6 °F 29.88 in SSW 2.0 mph 4.0 mph 93 % 0.00 in
07:52 81.0 °F 78.4 °F 29.89 in South 2.0 mph 4.0 mph 92 % 0.00 in
07:57 81.3 °F 78.8 °F 29.89 in SSE 4.0 mph 5.0 mph 92 % 0.00 in
08:02 81.7 °F 78.8 °F 29.89 in ESE 4.0 mph 5.0 mph 91 % 0.00 in
08:07 82.0 °F 78.8 °F 29.89 in SSW 1.0 mph 6.0 mph 90 % 0.00 in
08:12 82.6 °F 79.0 °F 29.89 in SSW 1.0 mph 6.0 mph 89 % 0.00 in
08:17 82.9 °F 79.0 °F 29.90 in SSE 3.0 mph 6.0 mph 88 % 0.00 in
08:22 83.1 °F 79.2 °F 29.89 in SSW 4.0 mph 7.0 mph 88 % 0.00 in
08:26 83.5 °F 79.2 °F 29.89 in South 8.0 mph 8.0 mph 87 % 0.00 in
08:31 83.7 °F 79.0 °F 29.90 in SSW 7.0 mph 10.0 mph 86 % 0.00 in
08:36 83.8 °F 79.2 °F 29.90 in SW 6.0 mph 11.0 mph 86 % 0.00 in
08:41 84.0 °F 79.0 °F 29.90 in South 6.0 mph 11.0 mph 85 % 0.00 in
08:46 84.4 °F 79.0 °F 29.90 in SSE 3.0 mph 11.0 mph 84 % 0.00 in
08:51 84.4 °F 79.0 °F 29.90 in SSE 6.0 mph 11.0 mph 84 % 0.00 in
08:56 84.6 °F 79.2 °F 29.90 in WSW 4.0 mph 13.0 mph 84 % 0.00 in
09:01 84.7 °F 79.3 °F 29.91 in ESE 5.0 mph 13.0 mph 84 % 0.00 in
09:06 84.9 °F 79.5 °F 29.90 in SSW 3.0 mph 13.0 mph 84 % 0.00 in
09:11 85.3 °F 79.5 °F 29.91 in South 6.0 mph 11.0 mph 83 % 0.00 in
09:16 85.3 °F 79.2 °F 29.91 in SE 5.0 mph 11.0 mph 82 % 0.00 in
09:21 85.5 °F 79.3 °F 29.91 in ESE 6.0 mph 9.0 mph 82 % 0.00 in
09:26 85.6 °F 79.5 °F 29.91 in ESE 4.0 mph 9.0 mph 82 % 0.00 in
09:36 85.6 °F 78.8 °F 29.91 in SE 6.0 mph 12.0 mph 80 % 0.00 in
09:41 85.6 °F 78.8 °F 29.92 in South 5.0 mph 12.0 mph 80 % 0.00 in
09:46 85.5 °F 79.0 °F 29.92 in SSW 3.0 mph 12.0 mph 81 % 0.00 in
09:51 85.6 °F 79.5 °F 29.92 in SSW 7.0 mph 11.0 mph 82 % 0.00 in
09:56 85.5 °F 79.0 °F 29.92 in South 6.0 mph 12.0 mph 81 % 0.00 in
10:01 85.5 °F 79.3 °F 29.92 in South 2.0 mph 12.0 mph 82 % 0.00 in
10:06 85.5 °F 79.3 °F 29.92 in SE 5.0 mph 12.0 mph 82 % 0.00 in
10:11 85.5 °F 79.3 °F 29.92 in South 3.0 mph 8.0 mph 82 % 0.00 in
10:16 86.0 °F 79.5 °F 29.92 in SSE 5.0 mph 9.0 mph 81 % 0.00 in
10:26 86.5 °F 79.2 °F 29.92 in South 6.0 mph 9.0 mph 79 % 0.00 in
10:31 86.5 °F 79.7 °F 29.92 in SSW 3.0 mph 10.0 mph 80 % 0.00 in
10:36 87.1 °F 79.7 °F 29.92 in SSW 4.0 mph 10.0 mph 79 % 0.00 in
10:41 87.1 °F 79.7 °F 29.92 in SE 2.0 mph 10.0 mph 79 % 0.00 in
10:42 87.1 °F 79.7 °F 29.92 in SE 5.0 mph 10.0 mph 79 % 0.00 in
10:47 87.3 °F 79.9 °F 29.92 in SSE 3.0 mph 8.0 mph 79 % 0.00 in
10:52 87.3 °F 79.9 °F 29.92 in South 6.0 mph 8.0 mph 79 % 0.00 in
10:57 87.4 °F 79.7 °F 29.92 in SSE 6.0 mph 8.0 mph 78 % 0.00 in
11:02 87.4 °F 79.7 °F 29.92 in SSE 4.0 mph 9.0 mph 78 % 0.00 in
11:07 87.6 °F 79.9 °F 29.91 in South 3.0 mph 10.0 mph 78 % 0.00 in
11:12 88.5 °F 80.1 °F 29.91 in SSE 6.0 mph 11.0 mph 76 % 0.00 in
11:17 88.9 °F 79.9 °F 29.91 in SE 7.0 mph 12.0 mph 75 % 0.00 in
11:27 90.1 °F 79.9 °F 29.91 in SSE 5.0 mph 12.0 mph 72 % 0.00 in
11:32 90.1 °F 79.9 °F 29.91 in SSW 10.0 mph 12.0 mph 72 % 0.00 in
11:37 90.1 °F 79.5 °F 29.90 in SSE 5.0 mph 13.0 mph 71 % 0.00 in
11:42 90.7 °F 80.4 °F 29.90 in SSW 4.0 mph 13.0 mph 72 % 0.00 in
11:47 91.6 °F 80.8 °F 29.90 in SW 6.0 mph 13.0 mph 71 % 0.00 in
11:52 92.1 °F 80.4 °F 29.90 in South 6.0 mph 12.0 mph 69 % 0.00 in
11:57 91.8 °F 79.7 °F 29.89 in SE 5.0 mph 14.0 mph 68 % 0.00 in
12:02 91.6 °F 80.4 °F 29.89 in SE 5.0 mph 14.0 mph 70 % 0.00 in
12:08 91.9 °F 79.3 °F 29.89 in SSE 10.0 mph 14.0 mph 67 % 0.00 in
12:13 91.8 °F 80.1 °F 29.89 in SE 3.0 mph 12.0 mph 69 % 0.00 in
12:18 91.8 °F 80.6 °F 29.89 in SW 3.0 mph 12.0 mph 70 % 0.00 in
12:23 91.9 °F 80.2 °F 29.89 in South 5.0 mph 12.0 mph 69 % 0.00 in
12:28 91.9 °F 79.3 °F 29.88 in SSE 10.0 mph 11.0 mph 67 % 0.00 in
12:33 91.6 °F 79.0 °F 29.88 in SSE 7.0 mph 13.0 mph 67 % 0.00 in
12:38 91.9 °F 79.3 °F 29.88 in SSE 6.0 mph 13.0 mph 67 % 0.00 in
12:43 92.5 °F 79.5 °F 29.88 in South 6.0 mph 13.0 mph 66 % 0.00 in
12:48 93.0 °F 80.4 °F 29.88 in ESE 6.0 mph 13.0 mph 67 % 0.00 in
12:53 93.4 °F 78.8 °F 29.88 in SSW 16.0 mph 16.0 mph 63 % 0.00 in
12:58 93.9 °F 79.0 °F 29.87 in South 5.0 mph 16.0 mph 62 % 0.00 in
13:03 93.9 °F 79.0 °F 29.88 in SSE 14.0 mph 16.0 mph 62 % 0.00 in
13:13 90.9 °F 77.9 °F 29.87 in South 10.0 mph 20.0 mph 66 % 0.00 in
13:18 88.7 °F 76.8 °F 29.88 in WSW 7.0 mph 20.0 mph 68 % 0.00 in
13:23 86.7 °F 77.0 °F 29.88 in SSE 7.0 mph 13.0 mph 73 % 0.00 in
13:28 86.2 °F 78.4 °F 29.88 in SE 5.0 mph 13.0 mph 78 % 0.00 in
13:33 86.2 °F 79.0 °F 29.87 in South 7.0 mph 13.0 mph 79 % 0.00 in
13:43 87.4 °F 75.9 °F 29.87 in SE 4.0 mph 11.0 mph 69 % 0.00 in
13:48 87.4 °F 75.9 °F 29.88 in SSW 5.0 mph 10.0 mph 69 % 0.00 in
13:53 87.1 °F 76.1 °F 29.87 in SE 2.0 mph 10.0 mph 70 % 0.00 in
13:58 86.7 °F 76.6 °F 29.86 in SSW 2.0 mph 10.0 mph 72 % 0.00 in
14:03 86.5 °F 76.5 °F 29.86 in SE 2.0 mph 6.0 mph 72 % 0.00 in
14:08 86.4 °F 76.3 °F 29.86 in SE 2.0 mph 6.0 mph 72 % 0.00 in
14:14 86.4 °F 76.6 °F 29.86 in South 3.0 mph 5.0 mph 73 % 0.00 in
14:19 86.5 °F 77.7 °F 29.86 in ESE 3.0 mph 5.0 mph 75 % 0.00 in
14:24 86.5 °F 77.7 °F 29.86 in SSE 3.0 mph 5.0 mph 75 % 0.00 in
14:29 86.7 °F 77.9 °F 29.86 in Calm   5.0 mph 75 % 0.00 in
14:34 87.1 °F 78.3 °F 29.86 in ESE 1.0 mph 4.0 mph 75 % 0.00 in
14:39 87.3 °F 78.4 °F 29.86 in ESE 1.0 mph 4.0 mph 75 % 0.00 in
14:44 87.4 °F 78.6 °F 29.86 in ENE 1.0 mph 5.0 mph 75 % 0.00 in
14:49 87.6 °F 78.6 °F 29.86 in SE 1.0 mph 5.0 mph 75 % 0.00 in
14:54 88.2 °F 79.2 °F 29.86 in South 2.0 mph 5.0 mph 75 % 0.00 in
14:59 88.2 °F 79.2 °F 29.86 in ESE 3.0 mph 5.0 mph 75 % 0.00 in
15:04 88.3 °F 79.9 °F 29.86 in South 1.0 mph 5.0 mph 76 % 0.00 in
15:09 88.5 °F 79.5 °F 29.86 in SSE 2.0 mph 5.0 mph 75 % 0.00 in
15:14 88.5 °F 80.1 °F 29.86 in SE 3.0 mph 5.0 mph 76 % 0.00 in
15:19 88.5 °F 80.4 °F 29.86 in Calm   4.0 mph 77 % 0.00 in
15:24 88.7 °F 80.2 °F 29.86 in ENE 2.0 mph 5.0 mph 76 % 0.00 in
15:29 88.7 °F 80.6 °F 29.86 in SSE 6.0 mph 6.0 mph 77 % 0.00 in
15:34 88.3 °F 80.2 °F 29.86 in South 4.0 mph 6.0 mph 77 % 0.00 in
15:39 88.0 °F 79.5 °F 29.86 in SE 10.0 mph 13.0 mph 76 % 0.00 in
15:44 87.8 °F 79.3 °F 29.86 in SSE 7.0 mph 13.0 mph 76 % 0.00 in
15:49 87.4 °F 79.3 °F 29.87 in SE 6.0 mph 13.0 mph 77 % 0.00 in
15:54 87.3 °F 78.8 °F 29.87 in South 16.0 mph 16.0 mph 76 % 0.00 in
15:59 86.4 °F 75.9 °F 29.88 in SSW 11.0 mph 19.0 mph 71 % 0.00 in
16:04 83.8 °F 74.7 °F 29.88 in South 6.0 mph 23.0 mph 74 % 0.00 in
16:09 80.6 °F 73.4 °F 29.86 in SSW 4.0 mph 23.0 mph 79 % 0.08 in
16:14 79.2 °F 73.6 °F 29.86 in SSE 7.0 mph 23.0 mph 83 % 0.11 in
16:19 78.6 °F 74.1 °F 29.86 in SE 6.0 mph 16.0 mph 86 % 0.12 in
16:24 78.1 °F 73.9 °F 29.87 in SSE 7.0 mph 15.0 mph 87 % 0.12 in
16:29 77.9 °F 74.5 °F 29.87 in ESE 7.0 mph 10.0 mph 89 % 0.12 in
16:34 78.1 °F 75.2 °F 29.86 in SE 3.0 mph 10.0 mph 91 % 0.12 in
16:39 78.3 °F 75.4 °F 29.86 in SSE 3.0 mph 10.0 mph 91 % 0.12 in
16:44 78.4 °F 75.9 °F 29.86 in South 2.0 mph 10.0 mph 92 % 0.12 in
16:49 78.8 °F 76.3 °F 29.86 in SE 3.0 mph 7.0 mph 92 % 0.12 in
16:59 79.3 °F 76.8 °F 29.86 in SSE 2.0 mph 6.0 mph 92 % 0.12 in
17:04 79.7 °F 77.5 °F 29.86 in SSE 2.0 mph 6.0 mph 93 % 0.12 in
17:09 79.9 °F 77.0 °F 29.85 in SE 3.0 mph 6.0 mph 91 % 0.04 in
17:14 80.1 °F 77.5 °F 29.85 in SE 3.0 mph 6.0 mph 92 % 0.01 in
17:19 80.2 °F 77.4 °F 29.85 in South 6.0 mph 6.0 mph 91 % 0.00 in
17:24 80.4 °F 77.5 °F 29.85 in SE 2.0 mph 6.0 mph 91 % 0.00 in
17:29 80.8 °F 77.5 °F 29.85 in SE 5.0 mph 6.0 mph 90 % 0.00 in
17:34 81.1 °F 77.9 °F 29.85 in SSE 5.0 mph 7.0 mph 90 % 0.00 in
17:39 81.3 °F 77.7 °F 29.85 in South 2.0 mph 7.0 mph 89 % 0.00 in
17:44 81.5 °F 77.9 °F 29.85 in SSE 4.0 mph 8.0 mph 89 % 0.00 in
17:49 81.7 °F 78.4 °F 29.84 in SSE 4.0 mph 8.0 mph 90 % 0.00 in
17:54 81.9 °F 78.6 °F 29.84 in South 2.0 mph 8.0 mph 90 % 0.00 in
17:59 81.9 °F 78.6 °F 29.83 in SSW 4.0 mph 6.0 mph 90 % 0.00 in
18:04 82.0 °F 79.2 °F 29.83 in SE 4.0 mph 6.0 mph 91 % 0.00 in
18:09 82.4 °F 79.5 °F 29.83 in SSE 2.0 mph 6.0 mph 91 % 0.00 in
18:14 82.6 °F 79.7 °F 29.83 in SSW 2.0 mph 6.0 mph 91 % 0.00 in
18:16 82.8 °F 79.9 °F 29.83 in SW 3.0 mph 6.0 mph 91 % 0.00 in
18:21 82.9 °F 80.1 °F 29.83 in South 4.0 mph 5.0 mph 91 % 0.00 in
18:26 83.1 °F 80.2 °F 29.83 in SE 4.0 mph 6.0 mph 91 % 0.00 in
18:31 83.5 °F 80.6 °F 29.83 in South 3.0 mph 6.0 mph 91 % 0.00 in
18:36 83.5 °F 80.2 °F 29.83 in SE 5.0 mph 7.0 mph 90 % 0.00 in
18:41 83.7 °F 80.4 °F 29.83 in South 5.0 mph 10.0 mph 90 % 0.00 in
18:46 83.8 °F 80.6 °F 29.83 in SSE 5.0 mph 10.0 mph 90 % 0.00 in
18:51 83.8 °F 80.2 °F 29.83 in SSE 4.0 mph 10.0 mph 89 % 0.00 in
18:56 83.8 °F 80.2 °F 29.83 in SSE 4.0 mph 7.0 mph 89 % 0.00 in
19:01 84.0 °F 80.4 °F 29.83 in SE 4.0 mph 7.0 mph 89 % 0.00 in
19:06 84.0 °F 80.4 °F 29.83 in ESE 2.0 mph 7.0 mph 89 % 0.00 in
19:11 84.0 °F 80.4 °F 29.83 in East 1.0 mph 6.0 mph 89 % 0.00 in
19:16 84.0 °F 80.4 °F 29.83 in ESE 3.0 mph 5.0 mph 89 % 0.00 in
19:21 84.0 °F 80.8 °F 29.83 in Calm   5.0 mph 90 % 0.00 in
19:26 83.8 °F 80.6 °F 29.84 in SE 1.0 mph 4.0 mph 90 % 0.00 in
19:31 83.8 °F 80.6 °F 29.83 in SE 1.0 mph 4.0 mph 90 % 0.00 in
19:36 83.8 °F 80.6 °F 29.83 in ESE 2.0 mph 4.0 mph 90 % 0.00 in
19:41 83.7 °F 80.4 °F 29.83 in East 2.0 mph 4.0 mph 90 % 0.00 in
19:46 83.7 °F 80.4 °F 29.83 in ESE 1.0 mph 4.0 mph 90 % 0.00 in
19:51 83.8 °F 81.0 °F 29.83 in SE 2.0 mph 4.0 mph 91 % 0.00 in
19:56 83.8 °F 80.6 °F 29.83 in ENE 2.0 mph 4.0 mph 90 % 0.00 in
20:01 83.8 °F 80.6 °F 29.83 in SSE 2.0 mph 5.0 mph 90 % 0.00 in
20:06 83.8 °F 80.6 °F 29.83 in SE 2.0 mph 6.0 mph 90 % 0.00 in
20:11 83.8 °F 80.6 °F 29.83 in ENE 3.0 mph 6.0 mph 90 % 0.00 in
20:17 84.0 °F 80.8 °F 29.83 in SE 4.0 mph 7.0 mph 90 % 0.00 in
20:22 84.0 °F 80.4 °F 29.83 in SE 5.0 mph 8.0 mph 89 % 0.00 in
20:27 84.2 °F 80.6 °F 29.83 in SE 2.0 mph 8.0 mph 89 % 0.00 in
20:32 84.0 °F 80.4 °F 29.84 in SSE 4.0 mph 8.0 mph 89 % 0.00 in
20:37 84.0 °F 80.4 °F 29.84 in SE 5.0 mph 8.0 mph 89 % 0.00 in
20:42 84.0 °F 80.8 °F 29.84 in SE 3.0 mph 8.0 mph 90 % 0.00 in
20:47 83.8 °F 80.2 °F 29.85 in South 8.0 mph 8.0 mph 89 % 0.00 in
20:52 83.8 °F 80.2 °F 29.84 in SSE 5.0 mph 11.0 mph 89 % 0.00 in
20:57 84.0 °F 80.1 °F 29.84 in SE 5.0 mph 11.0 mph 88 % 0.00 in
21:02 84.0 °F 80.1 °F 29.85 in SSE 3.0 mph 11.0 mph 88 % 0.00 in
21:07 84.0 °F 80.1 °F 29.85 in SE 3.0 mph 11.0 mph 88 % 0.00 in
21:17 84.0 °F 80.1 °F 29.85 in SE 4.0 mph 6.0 mph 88 % 0.00 in
21:22 84.0 °F 80.1 °F 29.86 in SE 3.0 mph 5.0 mph 88 % 0.00 in
21:27 83.8 °F 79.9 °F 29.86 in SSE 3.0 mph 5.0 mph 88 % 0.00 in
21:32 83.8 °F 79.5 °F 29.86 in SE 6.0 mph 7.0 mph 87 % 0.00 in
21:37 84.0 °F 79.7 °F 29.86 in East 4.0 mph 8.0 mph 87 % 0.00 in
21:42 84.0 °F 79.7 °F 29.87 in SSE 2.0 mph 8.0 mph 87 % 0.00 in
21:47 84.0 °F 79.7 °F 29.87 in SE 1.0 mph 8.0 mph 87 % 0.00 in
21:52 84.0 °F 79.7 °F 29.87 in SSE 1.0 mph 7.0 mph 87 % 0.00 in
21:57 84.0 °F 79.7 °F 29.87 in SE 5.0 mph 7.0 mph 87 % 0.00 in
22:02 84.0 °F 79.7 °F 29.87 in SE 1.0 mph 7.0 mph 87 % 0.00 in
22:07 84.0 °F 80.1 °F 29.87 in SE 1.0 mph 7.0 mph 88 % 0.00 in
22:12 83.8 °F 79.9 °F 29.87 in ESE 2.0 mph 6.0 mph 88 % 0.00 in
22:17 83.8 °F 79.9 °F 29.87 in SSE 5.0 mph 5.0 mph 88 % 0.00 in
22:21 83.8 °F 79.9 °F 29.87 in South 2.0 mph 6.0 mph 88 % 0.00 in
22:26 83.7 °F 80.1 °F 29.87 in SSE 2.0 mph 6.0 mph 89 % 0.00 in
22:29 83.7 °F 80.1 °F 29.87 in SE 3.0 mph 6.0 mph 89 % 0.00 in
22:31 83.7 °F 80.1 °F 29.87 in SE 3.0 mph 6.0 mph 89 % 0.00 in
22:36 83.7 °F 80.1 °F 29.87 in SSW 3.0 mph 6.0 mph 89 % 0.00 in
22:41 83.5 °F 79.9 °F 29.87 in SSE 4.0 mph 7.0 mph 89 % 0.00 in
22:42 83.5 °F 79.9 °F 29.87 in SW 3.0 mph 7.0 mph 89 % 0.00 in
22:48 83.5 °F 80.2 °F 29.87 in South 4.0 mph 8.0 mph 90 % 0.00 in
22:53 83.5 °F 80.2 °F 29.87 in South 7.0 mph 8.0 mph 90 % 0.00 in
22:58 83.5 °F 80.2 °F 29.87 in ESE 5.0 mph 8.0 mph 90 % 0.00 in
23:03 83.5 °F 80.2 °F 29.87 in South 5.0 mph 9.0 mph 90 % 0.00 in
23:08 83.5 °F 80.2 °F 29.88 in SE 6.0 mph 9.0 mph 90 % 0.00 in
23:13 83.5 °F 80.2 °F 29.88 in SSW 3.0 mph 9.0 mph 90 % 0.00 in
23:18 83.5 °F 80.2 °F 29.88 in SSW 5.0 mph 8.0 mph 90 % 0.00 in
23:23 83.5 °F 80.2 °F 29.88 in South 6.0 mph 8.0 mph 90 % 0.00 in
23:28 83.5 °F 80.2 °F 29.88 in SE 5.0 mph 9.0 mph 90 % 0.00 in
23:33 83.5 °F 80.2 °F 29.88 in South 5.0 mph 9.0 mph 90 % 0.00 in
23:35 83.5 °F 80.2 °F 29.88 in South 2.0 mph 10.0 mph 90 % 0.00 in
23:40 83.5 °F 80.2 °F 29.88 in South 3.0 mph 10.0 mph 90 % 0.00 in
23:45 83.5 °F 80.2 °F 29.88 in SE 5.0 mph 10.0 mph 90 % 0.00 in
23:50 83.5 °F 80.2 °F 29.88 in South 2.0 mph 7.0 mph 90 % 0.00 in
23:55 83.5 °F 80.2 °F 29.88 in SSW 3.0 mph 7.0 mph 90 % 0.00 in
Spring, Texas: Villages of Bridgestone
Compliments of Weather Underground - 2.75 mb

Script developed by  Jim McMurry - jmcmurry@mwt.net Adapted for the template by  Wim van der Kuil - Leuven-Template.eu

You find our weather info also at:

UK Metoffice

WeatherCloud

Weather Underground

Mid-South Weather Network

AWEKAS

Citizen Weather Observer Program (CWOP)

HAMweather, WeatherForYou, PWS Weather

Equipment we use:

Weather-station
Davis Vantage Vue

Weather-program
Meteohub

Weather-server
Debian 7.9 x86 (Guest)

Provider
DreamHost

Davis Vantage Vue

Meteohub

Debian 7.9 x86 (Guest)

DreamHost